Time;durP1;ratioP1;P1;durP2;ratioP2;P2;SDS_P1;SDS_P2;PMS_P1;PMS_P2;Temp;Humidity;BMP_temperature;BMP_pressure;BME280_temperature;BME280_humidity;BME280_pressure;Samples;Min_cycle;Max_cycle;Signal;HPM_P1;HPM_P2
2023/08/25 00:00:29;;;;;;;;;13.67;13.00;;;;;27.55;60.45;100273.38;5079441;27;45538;-75
2023/08/25 00:02:55;;;;;;;;;15.67;15.33;;;;;27.60;60.42;100291.13;5088341;27;45486;-76
2023/08/25 00:05:20;;;;;;;;;12.00;12.00;;;;;27.53;60.51;100272.56;5090096;27;45351;-75
2023/08/25 00:07:46;;;;;;;;;14.67;14.00;;;;;27.56;60.41;100283.19;5088311;27;45781;-75
2023/08/25 00:10:11;;;;;;;;;14.33;12.67;;;;;27.52;60.48;100278.91;5088999;27;45451;-75
2023/08/25 00:12:37;;;;;;;;;12.67;12.00;;;;;27.49;60.79;100279.03;5089585;27;45276;-75
2023/08/25 00:15:04;;;;;;;;;15.00;13.67;;;;;27.49;60.57;100268.28;5087806;27;45482;-75
2023/08/25 00:17:31;;;;;;;;;13.00;12.33;;;;;27.29;61.77;100260.28;5089253;27;45563;-75
2023/08/25 00:19:57;;;;;;;;;15.33;13.00;;;;;27.32;61.49;100278.91;5062018;27;45450;-75
2023/08/25 00:22:23;;;;;;;;;14.33;13.00;;;;;27.12;61.98;100259.16;5087757;27;45435;-75
2023/08/25 00:24:48;;;;;;;;;16.00;14.00;;;;;27.23;61.76;100272.09;5088847;27;45519;-75
2023/08/25 00:27:14;;;;;;;;;13.67;13.00;;;;;27.24;61.75;100271.22;5086913;27;45508;-75
2023/08/25 00:29:40;;;;;;;;;13.00;12.00;;;;;27.14;61.38;100259.09;5088590;27;45347;-75
2023/08/25 00:32:05;;;;;;;;;14.00;14.00;;;;;27.08;61.54;100254.88;5079393;27;46490;-75
2023/08/25 00:34:32;;;;;;;;;15.00;15.00;;;;;27.09;61.84;100258.41;5073553;27;45531;-75
2023/08/25 00:36:59;;;;;;;;;14.33;12.67;;;;;27.01;61.43;100250.72;5065153;27;45545;-75
2023/08/25 00:39:24;;;;;;;;;16.33;14.00;;;;;26.98;62.02;100258.91;5072220;27;45469;-75
2023/08/25 00:41:50;;;;;;;;;14.67;13.33;;;;;26.93;61.84;100268.94;5088260;27;45669;-75
2023/08/25 00:44:16;;;;;;;;;14.00;13.00;;;;;26.88;62.57;100263.78;5089034;27;45588;-75
2023/08/25 00:46:42;;;;;;;;;14.00;13.67;;;;;26.86;62.61;100270.09;5087223;27;45490;-75
2023/08/25 00:49:08;;;;;;;;;11.00;10.33;;;;;26.84;62.45;100266.63;5087044;27;45458;-75
2023/08/25 00:51:34;;;;;;;;;16.67;13.00;;;;;26.82;62.89;100257.78;5088276;27;45922;-75
2023/08/25 00:54:01;;;;;;;;;13.33;13.00;;;;;26.78;62.72;100274.00;5052890;28;45401;-76
2023/08/25 00:56:26;;;;;;;;;13.67;12.00;;;;;26.79;62.09;100264.16;5073925;28;45490;-75
2023/08/25 00:58:54;;;;;;;;;14.33;13.33;;;;;26.88;61.84;100271.81;5063184;28;45861;-76
2023/08/25 01:01:20;;;;;;;;;13.00;13.00;;;;;26.84;62.03;100261.25;5068636;28;46022;-75
2023/08/25 01:03:50;;;;;;;;;13.33;11.67;;;;;26.83;61.88;100251.50;5039894;28;45576;-75
2023/08/25 01:06:15;;;;;;;;;14.67;13.00;;;;;26.57;62.73;100253.41;5058541;28;45533;-75
2023/08/25 01:08:42;;;;;;;;;13.00;11.67;;;;;26.68;62.09;100269.97;5072779;28;45502;-76
2023/08/25 01:11:41;;;;;;;;;14.00;13.33;;;;;26.61;62.08;100251.53;5066808;28;45635;-76
2023/08/25 01:14:15;;;;;;;;;12.00;11.00;;;;;26.76;62.04;100253.56;5061428;28;45404;-75
2023/08/25 01:17:09;;;;;;;;;14.33;12.00;;;;;26.77;62.04;100242.75;5070822;28;45474;-76
2023/08/25 01:19:51;;;;;;;;;13.67;12.67;;;;;26.74;62.00;100245.59;5057166;28;45625;-75
2023/08/25 01:22:24;;;;;;;;;15.33;12.67;;;;;26.81;62.24;100239.97;5057659;28;46061;-75
2023/08/25 01:24:54;;;;;;;;;13.00;13.00;;;;;26.74;62.52;100229.50;5039278;28;45348;-76
2023/08/25 01:27:20;;;;;;;;;10.67;10.00;;;;;26.75;62.10;100233.91;5057177;28;45469;-75
2023/08/25 01:29:46;;;;;;;;;15.00;12.33;;;;;26.70;62.83;100235.03;5058824;28;45432;-74
2023/08/25 01:32:14;;;;;;;;;12.00;12.00;;;;;26.67;62.61;100252.13;5075706;28;47938;-75
2023/08/25 01:34:40;;;;;;;;;12.33;12.00;;;;;26.67;62.94;100252.13;5066684;28;45399;-73
2023/08/25 01:37:27;;;;;;;;;14.00;13.33;;;;;26.71;62.95;100248.38;5057698;28;45523;-73
2023/08/25 01:39:59;;;;;;;;;17.33;16.33;;;;;26.77;62.29;100244.59;5061855;28;45372;-73
2023/08/25 01:42:29;;;;;;;;;18.33;15.67;;;;;26.78;62.45;100249.88;5067520;28;46288;-72
2023/08/25 01:44:55;;;;;;;;;13.00;12.00;;;;;26.81;61.96;100250.69;5071510;28;45491;-72
2023/08/25 01:47:25;;;;;;;;;15.33;14.00;;;;;26.77;61.99;100240.09;5059763;28;45455;-73
2023/08/25 01:49:52;;;;;;;;;14.00;12.00;;;;;26.79;61.72;100251.59;5070449;28;45542;-73
2023/08/25 01:52:18;;;;;;;;;16.33;14.67;;;;;26.76;61.91;100243.72;5056571;28;45387;-73
2023/08/25 01:54:44;;;;;;;;;11.33;11.00;;;;;26.71;61.63;100226.09;5071217;28;45610;-73
2023/08/25 01:57:10;;;;;;;;;14.00;13.33;;;;;26.78;61.80;100236.47;5058026;28;45552;-73
2023/08/25 01:59:35;;;;;;;;;15.67;13.33;;;;;26.78;62.15;100238.31;5063333;28;45578;-74
2023/08/25 02:02:01;;;;;;;;;12.00;11.33;;;;;26.78;62.63;100231.13;5058971;28;46104;-73
2023/08/25 02:04:26;;;;;;;;;13.00;12.00;;;;;26.76;62.68;100219.59;5038801;28;45438;-73
2023/08/25 02:06:52;;;;;;;;;13.33;12.00;;;;;26.68;63.20;100236.91;5065582;28;45528;-74
2023/08/25 02:09:18;;;;;;;;;17.67;14.33;;;;;26.64;63.73;100243.34;5063922;28;45478;-73
2023/08/25 02:11:43;;;;;;;;;15.00;14.00;;;;;26.49;63.82;100213.53;5056670;28;46474;-73
2023/08/25 02:14:09;;;;;;;;;12.00;11.00;;;;;26.62;63.54;100232.72;5071119;28;45530;-73
2023/08/25 02:16:34;;;;;;;;;12.33;12.33;;;;;26.71;63.62;100234.13;5065196;28;45687;-74
2023/08/25 02:19:00;;;;;;;;;13.00;11.00;;;;;26.75;63.89;100233.91;5064552;28;45429;-73
2023/08/25 02:21:26;;;;;;;;;14.67;13.67;;;;;26.58;63.83;100204.28;5038156;28;46255;-73
2023/08/25 02:23:51;;;;;;;;;12.33;11.33;;;;;26.65;63.54;100216.50;5067063;28;45599;-74
2023/08/25 02:26:17;;;;;;;;;11.67;10.33;;;;;26.69;64.11;100239.53;5061395;28;45472;-73
2023/08/25 02:28:42;;;;;;;;;16.67;14.33;;;;;26.67;63.74;100225.34;5072045;27;45512;-73
2023/08/25 02:31:08;;;;;;;;;15.33;13.00;;;;;26.53;63.77;100227.69;5062252;28;46121;-73
2023/08/25 02:33:35;;;;;;;;;13.00;11.67;;;;;26.41;62.90;100233.56;5066147;28;45562;-73
2023/08/25 02:36:00;;;;;;;;;12.33;11.67;;;;;26.47;62.74;100242.19;5056789;28;45241;-73
2023/08/25 02:38:26;;;;;;;;;9.00;8.00;;;;;26.55;62.21;100231.19;5058930;28;47220;-73
2023/08/25 02:40:52;;;;;;;;;9.00;8.67;;;;;26.68;62.09;100239.59;5069285;28;45489;-73
2023/08/25 02:43:17;;;;;;;;;9.67;9.67;;;;;26.72;61.73;100227.81;5064434;28;45322;-75
2023/08/25 02:45:43;;;;;;;;;11.67;10.67;;;;;26.69;61.38;100231.50;5056898;28;45453;-76
2023/08/25 02:48:08;;;;;;;;;9.00;9.00;;;;;26.59;61.73;100224.78;5065358;28;45533;-76
2023/08/25 02:50:35;;;;;;;;;11.67;10.00;;;;;26.62;61.77;100222.00;5074371;28;45905;-75
2023/08/25 02:53:01;;;;;;;;;8.67;8.00;;;;;26.62;61.18;100218.41;5058853;28;45326;-76
2023/08/25 02:55:26;;;;;;;;;11.00;9.67;;;;;26.65;61.53;100216.50;5043328;28;45433;-76
2023/08/25 02:57:52;;;;;;;;;10.67;9.00;;;;;26.39;61.85;100234.47;5067845;28;45320;-76
2023/08/25 03:00:26;;;;;;;;;10.67;10.67;;;;;26.44;62.05;100233.41;5056456;28;45986;-76
2023/08/25 03:02:52;;;;;;;;;10.00;9.00;;;;;26.43;62.22;100220.97;5037927;28;45513;-75
2023/08/25 03:05:18;;;;;;;;;10.33;9.00;;;;;26.45;61.76;100219.97;5061145;28;45492;-76
2023/08/25 03:07:44;;;;;;;;;9.33;8.67;;;;;26.58;61.42;100229.28;5066861;28;45437;-76
2023/08/25 03:10:10;;;;;;;;;8.00;8.00;;;;;26.49;61.80;100224.25;5069528;28;45316;-76
2023/08/25 03:12:37;;;;;;;;;7.67;7.67;;;;;26.55;61.46;100225.81;5058998;28;45412;-76
2023/08/25 03:15:04;;;;;;;;;11.33;10.00;;;;;26.49;61.71;100216.22;5070684;28;45496;-76
2023/08/25 03:17:29;;;;;;;;;8.00;8.00;;;;;26.51;61.89;100217.03;5056360;28;45423;-73
2023/08/25 03:19:55;;;;;;;;;12.67;10.33;;;;;26.60;61.56;100231.91;5060316;28;46171;-76
2023/08/25 03:22:20;;;;;;;;;9.67;8.33;;;;;26.56;61.51;100214.16;5068878;28;45621;-76
2023/08/25 03:24:46;;;;;;;;;8.00;7.00;;;;;26.65;60.98;100224.53;5062993;28;45478;-76
2023/08/25 03:27:12;;;;;;;;;7.67;7.67;;;;;26.61;61.09;100216.69;5037959;28;45561;-75
2023/08/25 03:29:38;;;;;;;;;9.00;8.00;;;;;26.45;61.74;100214.59;5073771;28;45310;-75
2023/08/25 03:32:04;;;;;;;;;10.67;9.67;;;;;26.44;61.46;100204.84;5071554;28;45613;-76
2023/08/25 03:34:29;;;;;;;;;8.00;8.00;;;;;26.61;61.31;100211.34;5037474;28;45564;-76
2023/08/25 03:36:55;;;;;;;;;10.33;9.33;;;;;26.70;61.03;100221.66;5057683;28;45489;-76
2023/08/25 03:39:21;;;;;;;;;9.33;9.00;;;;;26.64;61.38;100206.72;5075796;28;45843;-75
2023/08/25 03:41:47;;;;;;;;;9.00;7.33;;;;;26.66;61.31;100215.56;5055534;28;45725;-75
2023/08/25 03:44:13;;;;;;;;;8.00;8.00;;;;;26.64;61.52;100201.38;5063320;28;45248;-75
2023/08/25 03:46:38;;;;;;;;;10.67;9.67;;;;;26.59;61.22;100195.31;5074639;28;45710;-75
2023/08/25 03:49:06;;;;;;;;;8.67;8.67;;;;;26.57;61.65;100186.44;5059723;28;45990;-75
2023/08/25 03:51:31;;;;;;;;;12.00;8.67;;;;;26.58;61.87;100196.25;5042510;28;45664;-76
2023/08/25 03:53:57;;;;;;;;;10.00;10.00;;;;;26.56;61.53;100188.25;5071071;28;45706;-76
2023/08/25 03:56:25;;;;;;;;;8.00;7.33;;;;;26.59;61.53;100189.97;5055797;28;45987;-75
2023/08/25 03:58:51;;;;;;;;;8.67;8.00;;;;;26.53;61.28;100185.69;5055616;28;45506;-76
2023/08/25 04:01:17;;;;;;;;;8.00;8.00;;;;;26.45;61.14;100195.00;5038453;28;45529;-75
2023/08/25 04:03:43;;;;;;;;;10.00;9.00;;;;;26.45;61.19;100192.31;5041334;28;45451;-76
2023/08/25 04:06:08;;;;;;;;;6.67;6.00;;;;;26.49;61.56;100194.78;5059318;28;45463;-76
2023/08/25 04:08:34;;;;;;;;;9.33;8.33;;;;;26.37;61.93;100184.59;5064979;28;45396;-75
2023/08/25 04:11:00;;;;;;;;;12.67;9.00;;;;;26.51;61.17;100192.06;5067866;27;45559;-76
2023/08/25 04:13:25;;;;;;;;;14.00;12.33;;;;;26.49;60.92;100193.94;5073774;28;45359;-76
2023/08/25 04:15:57;;;;;;;;;10.67;8.00;;;;;26.49;61.31;100184.09;5062008;27;45333;-76
2023/08/25 04:18:24;;;;;;;;;9.00;7.33;;;;;26.30;62.07;100188.44;5070709;28;45511;-76
2023/08/25 04:20:50;;;;;;;;;9.00;9.00;;;;;26.29;62.02;100184.91;5069799;28;45500;-76
2023/08/25 04:23:16;;;;;;;;;10.67;9.00;;;;;26.41;61.76;100196.06;5068683;28;45497;-76
2023/08/25 04:25:42;;;;;;;;;11.00;9.33;;;;;26.42;61.87;100200.47;5062023;28;45343;-75
2023/08/25 04:28:08;;;;;;;;;13.67;10.00;;;;;26.43;61.86;100196.88;5070650;28;46231;-76
2023/08/25 04:30:34;;;;;;;;;10.00;9.33;;;;;26.45;61.62;100192.31;5069397;27;45416;-75
2023/08/25 04:32:59;;;;;;;;;9.33;8.67;;;;;26.44;61.71;100201.28;5062963;28;45363;-76
2023/08/25 04:35:25;;;;;;;;;11.33;10.00;;;;;26.37;61.39;100190.81;5043486;28;45657;-76
2023/08/25 04:37:51;;;;;;;;;9.00;8.33;;;;;26.41;61.37;100182.66;5052446;28;45390;-76
2023/08/25 04:40:17;;;;;;;;;10.00;8.00;;;;;26.44;61.15;100198.59;5040461;28;45481;-76
2023/08/25 04:42:44;;;;;;;;;8.67;8.67;;;;;26.38;61.42;100199.72;5073705;28;45248;-76
2023/08/25 04:45:11;;;;;;;;;9.00;8.33;;;;;26.42;61.59;100198.66;5057001;28;45680;-76
2023/08/25 04:47:38;;;;;;;;;8.00;7.67;;;;;26.53;61.05;100208.94;5039340;28;46243;-75
2023/08/25 04:50:06;;;;;;;;;8.00;8.00;;;;;26.50;60.47;100211.72;5073826;28;45614;-76
2023/08/25 04:52:36;;;;;;;;;9.67;9.00;;;;;26.56;61.13;100214.16;5056869;28;45436;-76
2023/08/25 04:55:05;;;;;;;;;8.00;8.00;;;;;26.58;60.82;100218.56;5058815;28;45469;-76
2023/08/25 04:57:31;;;;;;;;;12.33;11.33;;;;;26.61;60.61;100212.19;5066890;28;46181;-76
2023/08/25 04:59:57;;;;;;;;;9.00;8.33;;;;;26.69;60.64;100226.13;5072758;28;45503;-76
2023/08/25 05:02:23;;;;;;;;;9.67;8.33;;;;;26.61;61.35;100219.38;5075389;28;45425;-76
2023/08/25 05:04:49;;;;;;;;;11.00;11.00;;;;;26.68;61.09;100235.13;5040150;28;45421;-76
2023/08/25 05:07:14;;;;;;;;;8.00;8.00;;;;;26.63;61.25;100231.75;5066756;28;45701;-75
2023/08/25 05:09:40;;;;;;;;;8.67;7.67;;;;;26.71;61.51;100239.47;5064853;28;45367;-76
2023/08/25 05:12:06;;;;;;;;;9.33;9.00;;;;;26.59;61.81;100232.81;5072815;28;45560;-75
2023/08/25 05:14:31;;;;;;;;;10.00;9.00;;;;;26.59;61.01;100224.78;5059642;28;45564;-75
2023/08/25 05:16:58;;;;;;;;;6.00;6.00;;;;;26.50;61.07;100238.50;5068810;28;46097;-76
2023/08/25 05:19:23;;;;;;;;;8.33;8.33;;;;;26.58;61.35;100236.41;5046817;28;45437;-76
2023/08/25 05:21:49;;;;;;;;;6.33;6.33;;;;;26.47;61.61;100244.00;5058117;28;45389;-76
2023/08/25 05:24:18;;;;;;;;;7.00;6.67;;;;;26.55;61.11;100252.59;5058334;28;46185;-76
2023/08/25 05:26:47;;;;;;;;;8.67;8.00;;;;;26.60;61.40;100261.38;5057498;28;46464;-76
2023/08/25 05:29:14;;;;;;;;;10.33;9.67;;;;;26.54;61.24;100248.16;5057939;28;45539;-76
2023/08/25 05:31:40;;;;;;;;;9.33;9.00;;;;;26.53;61.68;100257.16;5056349;28;45389;-76
2023/08/25 05:34:06;;;;;;;;;10.33;9.00;;;;;26.59;61.59;100260.47;5061190;28;45441;-75
2023/08/25 05:36:32;;;;;;;;;9.33;7.67;;;;;26.55;61.73;100257.97;5075619;27;46937;-76
2023/08/25 05:38:57;;;;;;;;;10.67;9.33;;;;;26.59;62.10;100264.97;5059706;28;45308;-75
2023/08/25 05:41:23;;;;;;;;;9.00;7.33;;;;;26.60;61.61;100264.06;5069959;28;45597;-76
2023/08/25 05:43:48;;;;;;;;;13.00;11.00;;;;;26.61;62.00;100268.47;5056420;28;45536;-76
2023/08/25 05:46:14;;;;;;;;;11.33;9.33;;;;;26.58;61.74;100264.09;5051604;28;46654;-76
2023/08/25 05:48:40;;;;;;;;;10.00;9.67;;;;;26.62;61.52;100267.53;5056716;28;45458;-75
2023/08/25 05:51:05;;;;;;;;;11.00;9.33;;;;;26.53;61.99;100265.19;5057403;28;45406;-76
2023/08/25 05:53:31;;;;;;;;;9.33;9.00;;;;;26.44;62.43;100262.88;5057290;28;45426;-76
2023/08/25 05:55:57;;;;;;;;;12.00;11.33;;;;;26.53;62.75;100279.44;5071694;28;45643;-76
2023/08/25 05:58:23;;;;;;;;;9.00;9.00;;;;;26.47;62.63;100279.69;5072316;28;45397;-76
2023/08/25 06:00:49;;;;;;;;;13.67;12.00;;;;;26.47;63.61;100274.34;5063566;28;45497;-76
2023/08/25 06:03:16;;;;;;;;;11.33;10.00;;;;;26.51;63.48;100275.09;5066621;28;45546;-76
2023/08/25 06:05:42;;;;;;;;;11.00;10.00;;;;;26.38;63.19;100259.53;5071495;28;46153;-75
2023/08/25 06:08:08;;;;;;;;;11.00;9.00;;;;;26.27;63.49;100263.56;5059688;28;45430;-75
2023/08/25 06:10:35;;;;;;;;;11.67;10.00;;;;;26.37;63.27;100273.84;5070048;28;45344;-76
2023/08/25 06:13:00;;;;;;;;;9.00;9.00;;;;;26.31;62.90;100265.19;5057233;28;45489;-75
2023/08/25 06:15:26;;;;;;;;;12.67;11.33;;;;;26.33;63.49;100274.91;5071085;28;45561;-76
2023/08/25 06:17:52;;;;;;;;;11.33;10.00;;;;;26.29;63.73;100273.28;5059770;28;45524;-76
2023/08/25 06:20:19;;;;;;;;;13.33;12.00;;;;;26.25;63.50;100279.69;5071307;27;45578;-76
2023/08/25 06:22:45;;;;;;;;;11.67;11.00;;;;;26.14;63.64;100253.34;5045906;28;45613;-76
2023/08/25 06:25:11;;;;;;;;;12.33;11.33;;;;;26.19;63.59;100267.41;5055874;28;45579;-76
2023/08/25 06:27:37;;;;;;;;;12.67;11.00;;;;;26.26;63.91;100275.19;5058447;28;45422;-75
2023/08/25 06:30:03;;;;;;;;;11.00;10.00;;;;;26.20;63.97;100273.63;5070394;28;45402;-76
2023/08/25 06:32:29;;;;;;;;;15.00;11.67;;;;;26.21;63.86;100272.72;5056019;28;45583;-76
2023/08/25 06:34:54;;;;;;;;;11.67;10.00;;;;;26.25;63.83;100277.00;5070479;28;45516;-74
2023/08/25 06:37:20;;;;;;;;;13.67;13.00;;;;;26.21;63.81;100264.69;5059908;28;45540;-73
2023/08/25 06:39:47;;;;;;;;;10.67;10.67;;;;;26.19;63.58;100269.22;5070362;28;45508;-74
2023/08/25 06:42:13;;;;;;;;;14.67;11.00;;;;;26.18;63.55;100267.47;5039000;28;45338;-76
2023/08/25 06:44:40;;;;;;;;;11.00;11.00;;;;;26.16;63.58;100267.53;5056257;28;46061;-76
2023/08/25 06:47:06;;;;;;;;;9.33;9.00;;;;;26.19;63.94;100271.91;5056429;28;45221;-76
2023/08/25 06:49:32;;;;;;;;;12.00;10.00;;;;;26.12;63.52;100263.25;5056617;28;45439;-76
2023/08/25 06:51:57;;;;;;;;;12.33;9.67;;;;;26.17;63.38;100265.72;5072011;27;45351;-76
2023/08/25 06:54:24;;;;;;;;;11.67;10.00;;;;;26.11;63.47;100260.63;5059953;28;45997;-76
2023/08/25 06:56:50;;;;;;;;;10.33;9.00;;;;;25.97;63.69;100262.00;5075338;28;45556;-74
2023/08/25 06:59:16;;;;;;;;;9.33;9.00;;;;;25.58;64.55;100259.00;5075998;28;45509;-73
2023/08/25 07:01:42;;;;;;;;;11.00;10.67;;;;;25.74;63.95;100265.50;5072764;28;45372;-75
2023/08/25 07:04:07;;;;;;;;;10.67;10.00;;;;;25.83;63.75;100268.81;5046271;28;46943;-75
2023/08/25 07:06:33;;;;;;;;;8.33;8.33;;;;;25.48;63.97;100226.34;5064710;28;46023;-74
2023/08/25 07:08:59;;;;;;;;;10.00;9.00;;;;;25.77;64.12;100284.16;5072124;28;45749;-74
2023/08/25 07:11:26;;;;;;;;;10.00;9.67;;;;;25.80;63.83;100284.03;5074298;28;45379;-73
2023/08/25 07:13:52;;;;;;;;;10.33;9.67;;;;;25.55;63.92;100243.94;5075685;28;45595;-74
2023/08/25 07:16:18;;;;;;;;;12.00;11.00;;;;;25.80;64.53;100280.47;5064694;28;45442;-74
2023/08/25 07:18:43;;;;;;;;;10.67;9.67;;;;;25.88;64.46;100289.06;5059632;28;45425;-75
2023/08/25 07:21:11;;;;;;;;;11.33;9.33;;;;;25.93;64.97;100292.50;5059633;28;45529;-73
2023/08/25 07:23:37;;;;;;;;;10.33;9.33;;;;;25.94;64.61;100285.34;5065542;28;45529;-75
2023/08/25 07:26:03;;;;;;;;;10.00;10.00;;;;;25.95;64.11;100282.59;5064447;28;45511;-75
2023/08/25 07:28:30;;;;;;;;;13.33;10.33;;;;;25.84;62.87;100281.22;5063252;28;45517;-75
2023/08/25 07:30:56;;;;;;;;;10.33;8.00;;;;;25.92;63.07;100300.56;5056351;28;45567;-75
2023/08/25 07:33:23;;;;;;;;;9.33;9.00;;;;;25.82;63.37;100281.28;5069113;28;46084;-77
2023/08/25 07:35:48;;;;;;;;;10.33;8.33;;;;;26.01;63.44;100300.25;5071739;28;45489;-75
2023/08/25 07:38:14;;;;;;;;;9.00;8.33;;;;;26.06;62.92;100305.41;5076606;28;45473;-77
2023/08/25 07:40:40;;;;;;;;;12.00;9.33;;;;;26.05;63.14;100301.00;5078652;28;45331;-76
2023/08/25 07:43:06;;;;;;;;;10.33;10.00;;;;;26.12;62.65;100303.41;5073773;28;45966;-79
2023/08/25 07:45:33;;;;;;;;;9.00;8.33;;;;;26.22;62.24;100300.34;5073918;28;45433;-72
2023/08/25 07:48:01;;;;;;;;;18.67;17.67;;;;;26.26;62.01;100294.84;5074677;28;45407;-79
2023/08/25 07:50:31;;;;;;;;;9.33;9.00;;;;;26.31;61.85;100292.81;5077707;27;45432;-74
2023/08/25 07:52:58;;;;;;;;;9.33;8.00;;;;;26.40;61.70;100310.31;5087656;27;45673;-77
2023/08/25 07:55:24;;;;;;;;;10.00;9.00;;;;;26.36;61.82;100289.97;5087166;27;45703;-79
2023/08/25 07:57:51;;;;;;;;;8.33;8.00;;;;;26.48;61.28;100310.03;5071860;28;45397;-79
2023/08/25 08:00:18;;;;;;;;;9.00;8.00;;;;;26.48;60.92;100308.25;5065897;27;45808;-74
2023/08/25 08:02:45;;;;;;;;;9.00;9.00;;;;;26.49;61.43;100306.44;5075864;27;45527;-73
2023/08/25 08:05:12;;;;;;;;;7.67;7.00;;;;;26.47;61.10;100308.31;5056460;28;45570;-74
2023/08/25 08:07:38;;;;;;;;;10.33;9.00;;;;;26.36;61.69;100312.28;5057950;28;45478;-74
2023/08/25 08:10:05;;;;;;;;;8.00;8.00;;;;;26.28;62.44;100302.78;5056632;28;45401;-76
2023/08/25 08:12:31;;;;;;;;;8.00;7.33;;;;;26.46;61.99;100311.91;5073211;27;45422;-73
2023/08/25 08:14:57;;;;;;;;;9.67;8.67;;;;;26.51;61.15;100310.78;5074448;28;45393;-77
2023/08/25 08:17:22;;;;;;;;;10.00;10.00;;;;;26.53;61.56;100316.94;5075345;27;45432;-78
2023/08/25 08:19:49;;;;;;;;;10.00;9.33;;;;;26.24;62.17;100280.59;5076548;28;46042;-77
2023/08/25 08:22:15;;;;;;;;;8.00;7.33;;;;;26.43;60.88;100323.63;5074743;27;45416;-78
2023/08/25 08:24:50;;;;;;;;;11.33;10.00;;;;;26.37;61.89;100308.66;5076861;28;45510;-79
2023/08/25 08:27:17;;;;;;;;;10.33;9.33;;;;;26.32;61.87;100297.25;5075646;27;45465;-76
2023/08/25 08:29:44;;;;;;;;;9.00;8.67;;;;;26.47;61.67;100327.91;5056706;28;45537;-77
2023/08/25 08:32:09;;;;;;;;;9.00;9.00;;;;;26.21;62.30;100275.38;5074617;27;45428;-77
2023/08/25 08:34:36;;;;;;;;;15.00;14.00;;;;;26.48;62.11;100310.94;5072863;28;45353;-76
2023/08/25 08:37:05;;;;;;;;;8.00;8.00;;;;;26.55;61.55;100324.94;5072772;28;45955;-77
2023/08/25 08:39:34;;;;;;;;;9.00;9.00;;;;;26.64;61.24;100318.34;5077248;28;45553;-77
2023/08/25 08:42:03;;;;;;;;;8.00;7.67;;;;;26.73;60.25;100316.19;5064630;28;45394;-77
2023/08/25 08:44:35;;;;;;;;;7.33;7.33;;;;;26.81;59.40;100307.84;5066560;28;45494;-77
2023/08/25 08:47:03;;;;;;;;;8.00;7.33;;;;;26.79;59.69;100326.66;5063369;28;45500;-77
2023/08/25 08:49:30;;;;;;;;;11.00;9.00;;;;;26.83;59.72;100322.03;5061037;28;45649;-77
2023/08/25 08:51:58;;;;;;;;;8.00;8.00;;;;;26.83;60.17;100330.09;5074657;27;45679;-76
2023/08/25 08:54:28;;;;;;;;;8.67;8.67;;;;;26.92;59.98;100331.53;5072646;28;45371;-76
2023/08/25 08:56:55;;;;;;;;;11.33;10.33;;;;;26.95;59.40;100339.44;5068332;28;45457;-76
2023/08/25 08:59:20;;;;;;;;;12.00;9.67;;;;;26.94;59.45;100335.88;5055409;28;45461;-76
2023/08/25 09:01:48;;;;;;;;;6.00;4.33;;;;;26.94;59.25;100340.38;5066369;27;45428;-75
2023/08/25 09:04:18;;;;;;;;;9.00;7.00;;;;;26.87;59.63;100337.06;5063050;28;45506;-76
2023/08/25 09:06:46;;;;;;;;;7.00;6.00;;;;;26.90;59.71;100338.72;5073015;27;45382;-76
2023/08/25 09:09:14;;;;;;;;;6.67;6.67;;;;;26.46;59.46;100293.16;5057351;28;45455;-76
2023/08/25 09:11:40;;;;;;;;;7.67;7.00;;;;;26.67;60.19;100339.69;5057158;28;46093;-76
2023/08/25 09:14:07;;;;;;;;;9.00;8.00;;;;;26.72;59.66;100341.25;5057136;28;45461;-76
2023/08/25 09:16:35;;;;;;;;;7.33;6.00;;;;;26.78;59.86;100343.69;5072726;28;45591;-76
2023/08/25 09:19:02;;;;;;;;;7.33;6.67;;;;;26.71;59.60;100333.25;5063385;28;45326;-76
2023/08/25 09:21:28;;;;;;;;;7.00;6.33;;;;;26.81;59.42;100347.16;5066484;28;46095;-76
2023/08/25 09:23:59;;;;;;;;;11.00;10.00;;;;;26.81;59.60;100341.81;5072161;28;45327;-77
2023/08/25 09:26:28;;;;;;;;;6.33;6.33;;;;;26.88;59.94;100343.28;5057346;28;45465;-77
2023/08/25 09:28:55;;;;;;;;;11.00;11.00;;;;;26.78;59.76;100335.63;5057402;28;45328;-77
2023/08/25 09:31:26;;;;;;;;;9.33;8.33;;;;;26.93;59.71;100352.88;5065720;27;45390;-76
2023/08/25 09:33:59;;;;;;;;;14.00;13.00;;;;;26.95;59.79;100347.47;5063435;28;45449;-77
2023/08/25 09:36:25;;;;;;;;;23.33;22.33;;;;;26.74;60.48;100344.75;5063494;28;45453;-76
2023/08/25 09:38:52;;;;;;;;;14.33;13.33;;;;;26.64;61.38;100364.81;5075318;28;45544;-74
2023/08/25 09:41:28;;;;;;;;;11.00;9.67;;;;;26.66;60.86;100362.94;5062707;28;45347;-75
2023/08/25 09:44:02;;;;;;;;;8.00;8.00;;;;;26.62;60.07;100344.34;5044605;28;46077;-75
2023/08/25 09:46:32;;;;;;;;;6.00;6.00;;;;;26.71;59.81;100341.31;5045751;28;45433;-76
2023/08/25 09:49:03;;;;;;;;;9.00;9.00;;;;;26.79;60.07;100348.09;5073206;28;45573;-75
2023/08/25 09:51:39;;;;;;;;;12.00;10.67;;;;;26.76;59.70;100368.81;5056249;28;45662;-75
2023/08/25 09:54:13;;;;;;;;;16.33;14.00;;;;;26.61;60.67;100362.22;5056035;28;45575;-75
2023/08/25 09:56:41;;;;;;;;;14.00;12.33;;;;;26.69;60.65;100361.94;5038380;28;45481;-75
2023/08/25 09:59:09;;;;;;;;;16.00;14.00;;;;;26.75;60.10;100359.00;5062576;28;45516;-76
2023/08/25 10:01:37;;;;;;;;;9.67;8.67;;;;;26.74;59.68;100362.59;5065907;28;46134;-74
2023/08/25 10:04:04;;;;;;;;;11.00;10.00;;;;;26.67;60.13;100370.03;5056114;28;45321;-74
2023/08/25 10:06:32;;;;;;;;;9.00;8.67;;;;;26.62;59.82;100369.34;5071783;28;45735;-75
2023/08/25 10:08:59;;;;;;;;;2.67;1.00;;;;;26.66;59.03;100364.72;5062829;28;45591;-74
2023/08/25 10:11:50;;;;;;;;;8.00;8.00;;;;;26.70;59.58;100367.22;5064234;27;45571;-76
2023/08/25 10:14:21;;;;;;;;;7.00;6.33;;;;;26.89;58.79;100363.81;5071869;28;45573;-74
2023/08/25 10:16:52;;;;;;;;;5.67;5.67;;;;;27.11;57.90;100361.13;5045656;28;45629;-75
2023/08/25 10:19:29;;;;;;;;;8.00;5.67;;;;;27.33;57.20;100358.44;5074364;28;45504;-74
2023/08/25 10:21:55;;;;;;;;;5.00;4.00;;;;;27.44;56.87;100350.81;5070734;28;46301;-75
2023/08/25 10:24:28;;;;;;;;;7.00;6.00;;;;;27.43;57.34;100354.41;5071730;28;45545;-75
2023/08/25 10:26:56;;;;;;;;;5.67;5.67;;;;;27.47;56.81;100352.47;5055772;27;45503;-75
2023/08/25 10:29:26;;;;;;;;;9.00;8.00;;;;;27.66;56.56;100349.88;5065781;28;45513;-75
2023/08/25 10:31:58;;;;;;;;;6.67;5.00;;;;;27.85;56.34;100339.16;5055461;28;45853;-75
2023/08/25 10:34:35;;;;;;;;;11.00;9.00;;;;;27.93;56.06;100332.56;5038095;28;45485;-75
2023/08/25 10:37:10;;;;;;;;;7.33;6.33;;;;;28.20;55.67;100332.22;5061572;28;45404;-75
2023/08/25 10:39:49;;;;;;;;;7.33;7.00;;;;;28.41;55.07;100311.53;5049527;28;45434;-78
2023/08/25 10:42:22;;;;;;;;;5.00;5.00;;;;;28.87;54.28;100335.31;5058801;28;45768;-74
2023/08/25 10:44:54;;;;;;;;;12.67;12.33;;;;;29.07;53.45;100332.53;5071606;28;45806;-74
2023/08/25 10:47:21;;;;;;;;;7.67;6.00;;;;;29.39;52.89;100332.72;5063476;28;45496;-74
2023/08/25 10:49:47;;;;;;;;;7.33;7.00;;;;;29.70;52.08;100317.63;5059368;27;45493;-75
2023/08/25 10:52:18;;;;;;;;;7.00;6.00;;;;;29.99;50.56;100315.25;5054687;28;45991;-73
2023/08/25 10:54:45;;;;;;;;;7.00;6.00;;;;;30.00;50.37;100308.91;5039681;28;45502;-77
2023/08/25 10:57:39;;;;;;;;;6.33;5.33;;;;;30.05;50.28;100307.69;5062783;28;45423;-75
2023/08/25 11:00:43;;;;;;;;;6.00;5.00;;;;;30.55;49.57;100307.69;5060034;28;45158;-74
2023/08/25 11:03:09;;;;;;;;;7.33;6.33;;;;;30.87;49.07;100308.50;5043512;28;45507;-75
2023/08/25 11:05:35;;;;;;;;;6.33;6.33;;;;;30.84;48.34;100320.34;5058756;28;45628;-75
2023/08/25 11:08:03;;;;;;;;;7.00;6.67;;;;;30.64;49.92;100320.59;5069845;28;45577;-75
2023/08/25 11:10:33;;;;;;;;;6.00;5.00;;;;;30.64;50.22;100323.31;5038308;28;45371;-74
2023/08/25 11:13:00;;;;;;;;;5.67;5.00;;;;;30.47;49.26;100313.50;5059117;28;45473;-75
2023/08/25 11:15:26;;;;;;;;;8.00;6.33;;;;;30.12;50.04;100316.28;5040221;28;45652;-74
2023/08/25 11:17:52;;;;;;;;;6.00;5.67;;;;;29.96;50.91;100315.41;5058850;28;45342;-75